sensor_id;sensor_type;location;lat;lon;timestamp;pressure;altitude;pressure_sealevel;temperature;humidity
68634;BME280;55625;47.072;22.192;2023-03-14T00:02:07;99336.34;;;7.62;55.87
68634;BME280;55625;47.072;22.192;2023-03-14T00:04:34;99341.84;;;7.36;55.95
68634;BME280;55625;47.072;22.192;2023-03-14T00:07:00;99338.22;;;7.20;57.12
68634;BME280;55625;47.072;22.192;2023-03-14T00:09:25;99337.84;;;7.01;58.44
68634;BME280;55625;47.072;22.192;2023-03-14T00:11:53;99328.13;;;6.86;59.82
68634;BME280;55625;47.072;22.192;2023-03-14T00:14:19;99331.69;;;6.70;60.48
68634;BME280;55625;47.072;22.192;2023-03-14T00:16:48;99329.28;;;6.52;62.55
68634;BME280;55625;47.072;22.192;2023-03-14T00:19:14;99326.41;;;6.36;63.90
68634;BME280;55625;47.072;22.192;2023-03-14T00:21:39;99324.59;;;6.26;63.84
68634;BME280;55625;47.072;22.192;2023-03-14T00:24:06;99316.31;;;6.19;64.66
68634;BME280;55625;47.072;22.192;2023-03-14T00:26:32;99309.63;;;6.09;63.94
68634;BME280;55625;47.072;22.192;2023-03-14T00:28:58;99313.03;;;6.01;64.42
68634;BME280;55625;47.072;22.192;2023-03-14T00:31:24;99306.34;;;5.95;65.30
68634;BME280;55625;47.072;22.192;2023-03-14T00:33:52;99306.84;;;5.89;64.73
68634;BME280;55625;47.072;22.192;2023-03-14T00:36:19;99306.09;;;5.85;65.19
68634;BME280;55625;47.072;22.192;2023-03-14T00:38:48;99302.03;;;5.86;65.00
68634;BME280;55625;47.072;22.192;2023-03-14T00:41:21;99296.84;;;5.85;65.41
68634;BME280;55625;47.072;22.192;2023-03-14T00:43:48;99302.03;;;5.86;64.50
68634;BME280;55625;47.072;22.192;2023-03-14T00:46:15;99289.06;;;5.93;63.01
68634;BME280;55625;47.072;22.192;2023-03-14T00:48:41;99295.19;;;5.87;64.59
68634;BME280;55625;47.072;22.192;2023-03-14T00:51:08;99294.72;;;5.93;64.25
68634;BME280;55625;47.072;22.192;2023-03-14T00:53:38;99288.63;;;5.94;64.70
68634;BME280;55625;47.072;22.192;2023-03-14T00:56:10;99279.31;;;5.97;64.42
68634;BME280;55625;47.072;22.192;2023-03-14T00:58:36;99281.28;;;6.00;64.57
68634;BME280;55625;47.072;22.192;2023-03-14T01:01:13;99285.91;;;5.90;64.73
68634;BME280;55625;47.072;22.192;2023-03-14T01:03:39;99278.03;;;5.78;66.27
68634;BME280;55625;47.072;22.192;2023-03-14T01:06:27;99269.31;;;5.73;65.66
68634;BME280;55625;47.072;22.192;2023-03-14T01:08:54;99276.59;;;5.70;66.10
68634;BME280;55625;47.072;22.192;2023-03-14T01:11:31;99277.47;;;5.67;66.04
68634;BME280;55625;47.072;22.192;2023-03-14T01:13:58;99271.03;;;5.67;66.92
68634;BME280;55625;47.072;22.192;2023-03-14T01:16:26;99279.19;;;5.61;66.22
68634;BME280;55625;47.072;22.192;2023-03-14T01:18:53;99272.56;;;5.71;65.40
68634;BME280;55625;47.072;22.192;2023-03-14T01:21:24;99261.16;;;5.78;65.15
68634;BME280;55625;47.072;22.192;2023-03-14T01:23:52;99270.81;;;5.77;65.88
68634;BME280;55625;47.072;22.192;2023-03-14T01:26:21;99269.03;;;5.67;65.87
68634;BME280;55625;47.072;22.192;2023-03-14T01:28:49;99263.91;;;5.62;66.29
68634;BME280;55625;47.072;22.192;2023-03-14T01:31:17;99267.16;;;5.60;66.22
68634;BME280;55625;47.072;22.192;2023-03-14T01:33:45;99260.47;;;5.51;67.06
68634;BME280;55625;47.072;22.192;2023-03-14T01:36:11;99261.84;;;5.43;67.56
68634;BME280;55625;47.072;22.192;2023-03-14T01:38:38;99256.78;;;5.34;68.30
68634;BME280;55625;47.072;22.192;2023-03-14T01:41:07;99253.25;;;5.30;69.80
68634;BME280;55625;47.072;22.192;2023-03-14T01:43:33;99250.84;;;5.28;68.26
68634;BME280;55625;47.072;22.192;2023-03-14T01:49:02;99240.97;;;5.20;69.82
68634;BME280;55625;47.072;22.192;2023-03-14T01:54:40;99244.75;;;5.10;71.28
68634;BME280;55625;47.072;22.192;2023-03-14T01:57:41;99244.88;;;5.03;71.08
68634;BME280;55625;47.072;22.192;2023-03-14T02:00:13;99241.81;;;4.94;71.60
68634;BME280;55625;47.072;22.192;2023-03-14T02:02:53;99238.88;;;4.78;72.52
68634;BME280;55625;47.072;22.192;2023-03-14T02:05:32;99244.47;;;4.78;71.70
68634;BME280;55625;47.072;22.192;2023-03-14T02:08:02;99234.94;;;4.72;72.52
68634;BME280;55625;47.072;22.192;2023-03-14T02:10:32;99239.84;;;4.67;73.33
68634;BME280;55625;47.072;22.192;2023-03-14T02:13:03;99230.25;;;4.65;73.68
68634;BME280;55625;47.072;22.192;2023-03-14T02:15:31;99225.16;;;4.56;74.96
68634;BME280;55625;47.072;22.192;2023-03-14T02:17:58;99224.72;;;4.58;73.56
68634;BME280;55625;47.072;22.192;2023-03-14T02:20:30;99226.03;;;4.77;72.61
68634;BME280;55625;47.072;22.192;2023-03-14T02:22:59;99226.03;;;4.77;73.21
68634;BME280;55625;47.072;22.192;2023-03-14T02:26:03;99223.84;;;4.64;74.47
68634;BME280;55625;47.072;22.192;2023-03-14T02:28:31;99227.94;;;4.56;73.32
68634;BME280;55625;47.072;22.192;2023-03-14T02:30:57;99220.88;;;4.48;75.26
68634;BME280;55625;47.072;22.192;2023-03-14T02:33:23;99214.88;;;4.46;75.16
68634;BME280;55625;47.072;22.192;2023-03-14T02:36:00;99225.38;;;4.42;75.88
68634;BME280;55625;47.072;22.192;2023-03-14T02:41:12;99213.41;;;4.38;75.58
68634;BME280;55625;47.072;22.192;2023-03-14T02:43:38;99219.38;;;4.40;76.33
68634;BME280;55625;47.072;22.192;2023-03-14T02:46:05;99221.81;;;4.38;76.71
68634;BME280;55625;47.072;22.192;2023-03-14T02:48:43;99217.81;;;4.39;75.24
68634;BME280;55625;47.072;22.192;2023-03-14T02:51:11;99213.72;;;4.44;74.65
68634;BME280;55625;47.072;22.192;2023-03-14T02:53:38;99219.06;;;4.61;73.43
68634;BME280;55625;47.072;22.192;2023-03-14T02:56:04;99210.63;;;4.61;74.78
68634;BME280;55625;47.072;22.192;2023-03-14T02:58:31;99206.28;;;4.57;75.64
68634;BME280;55625;47.072;22.192;2023-03-14T03:00:57;99204.75;;;4.52;75.48
68634;BME280;55625;47.072;22.192;2023-03-14T03:03:23;99205.72;;;4.42;75.17
68634;BME280;55625;47.072;22.192;2023-03-14T03:05:51;99201.94;;;4.52;74.97
68634;BME280;55625;47.072;22.192;2023-03-14T03:08:18;99213.53;;;4.54;74.66
68634;BME280;55625;47.072;22.192;2023-03-14T03:10:45;99206.84;;;4.72;73.30
68634;BME280;55625;47.072;22.192;2023-03-14T03:13:10;99194.88;;;4.91;72.77
68634;BME280;55625;47.072;22.192;2023-03-14T03:15:36;99195.97;;;4.97;72.15
68634;BME280;55625;47.072;22.192;2023-03-14T03:18:02;99190.00;;;5.15;71.93
68634;BME280;55625;47.072;22.192;2023-03-14T03:20:28;99198.19;;;5.29;71.25
68634;BME280;55625;47.072;22.192;2023-03-14T03:22:54;99180.88;;;5.30;73.07
68634;BME280;55625;47.072;22.192;2023-03-14T03:25:21;99180.09;;;5.30;72.60
68634;BME280;55625;47.072;22.192;2023-03-14T03:27:47;99182.13;;;5.29;74.32
68634;BME280;55625;47.072;22.192;2023-03-14T03:30:13;99175.13;;;5.38;74.57
68634;BME280;55625;47.072;22.192;2023-03-14T03:32:39;99183.91;;;5.40;74.76
68634;BME280;55625;47.072;22.192;2023-03-14T03:35:06;99171.88;;;5.39;75.21
68634;BME280;55625;47.072;22.192;2023-03-14T03:37:33;99181.09;;;5.40;75.15
68634;BME280;55625;47.072;22.192;2023-03-14T03:39:59;99176.72;;;5.39;75.05
68634;BME280;55625;47.072;22.192;2023-03-14T03:42:29;99174.75;;;5.36;75.14
68634;BME280;55625;47.072;22.192;2023-03-14T03:44:55;99181.75;;;5.27;74.99
68634;BME280;55625;47.072;22.192;2023-03-14T03:47:21;99179.88;;;5.21;75.43
68634;BME280;55625;47.072;22.192;2023-03-14T03:49:46;99178.69;;;5.18;76.01
68634;BME280;55625;47.072;22.192;2023-03-14T03:52:12;99177.09;;;5.17;76.00
68634;BME280;55625;47.072;22.192;2023-03-14T03:54:38;99173.06;;;5.18;75.80
68634;BME280;55625;47.072;22.192;2023-03-14T03:57:04;99162.22;;;5.20;76.02
68634;BME280;55625;47.072;22.192;2023-03-14T03:59:30;99168.91;;;5.26;75.72
68634;BME280;55625;47.072;22.192;2023-03-14T04:01:56;99163.22;;;5.30;76.28
68634;BME280;55625;47.072;22.192;2023-03-14T04:04:22;99148.78;;;5.28;75.68
68634;BME280;55625;47.072;22.192;2023-03-14T04:06:47;99148.16;;;5.20;76.11
68634;BME280;55625;47.072;22.192;2023-03-14T04:09:14;99143.06;;;5.12;76.86
68634;BME280;55625;47.072;22.192;2023-03-14T04:11:40;99153.94;;;5.10;76.36
68634;BME280;55625;47.072;22.192;2023-03-14T04:14:07;99136.06;;;5.00;76.97
68634;BME280;55625;47.072;22.192;2023-03-14T04:16:33;99138.59;;;4.94;77.07
68634;BME280;55625;47.072;22.192;2023-03-14T04:19:00;99129.84;;;4.89;76.72
68634;BME280;55625;47.072;22.192;2023-03-14T04:21:26;99119.38;;;4.89;75.93
68634;BME280;55625;47.072;22.192;2023-03-14T04:23:52;99123.13;;;4.83;76.46
68634;BME280;55625;47.072;22.192;2023-03-14T04:26:18;99120.88;;;4.74;74.94
68634;BME280;55625;47.072;22.192;2023-03-14T04:28:44;99124.41;;;4.78;74.68
68634;BME280;55625;47.072;22.192;2023-03-14T04:31:17;99101.50;;;4.80;74.80
68634;BME280;55625;47.072;22.192;2023-03-14T04:33:45;99105.53;;;4.79;73.50
68634;BME280;55625;47.072;22.192;2023-03-14T04:36:11;99097.28;;;4.91;72.59
68634;BME280;55625;47.072;22.192;2023-03-14T04:38:37;99104.72;;;5.02;71.80
68634;BME280;55625;47.072;22.192;2023-03-14T04:41:03;99097.44;;;5.04;71.77
68634;BME280;55625;47.072;22.192;2023-03-14T04:43:30;99092.88;;;5.10;71.77
68634;BME280;55625;47.072;22.192;2023-03-14T04:45:57;99080.47;;;5.27;69.83
68634;BME280;55625;47.072;22.192;2023-03-14T04:48:25;99086.38;;;5.53;69.92
68634;BME280;55625;47.072;22.192;2023-03-14T04:50:51;99091.06;;;5.59;68.58
68634;BME280;55625;47.072;22.192;2023-03-14T04:53:18;99087.81;;;5.61;68.47
68634;BME280;55625;47.072;22.192;2023-03-14T04:55:53;99083.06;;;5.58;69.60
68634;BME280;55625;47.072;22.192;2023-03-14T04:58:19;99084.06;;;5.48;72.89
68634;BME280;55625;47.072;22.192;2023-03-14T05:00:46;99070.84;;;5.45;71.56
68634;BME280;55625;47.072;22.192;2023-03-14T05:03:17;99082.38;;;5.50;72.42
68634;BME280;55625;47.072;22.192;2023-03-14T05:05:44;99066.53;;;5.60;72.31
68634;BME280;55625;47.072;22.192;2023-03-14T05:08:10;99073.66;;;5.65;72.92
68634;BME280;55625;47.072;22.192;2023-03-14T05:10:36;99062.13;;;5.75;71.12
68634;BME280;55625;47.072;22.192;2023-03-14T05:13:01;99073.16;;;5.86;71.85
68634;BME280;55625;47.072;22.192;2023-03-14T05:15:27;99062.34;;;5.84;71.77
68634;BME280;55625;47.072;22.192;2023-03-14T05:17:53;99054.53;;;5.92;70.06
68634;BME280;55625;47.072;22.192;2023-03-14T05:20:20;99060.09;;;5.96;69.19
68634;BME280;55625;47.072;22.192;2023-03-14T05:22:46;99047.41;;;6.04;68.48
68634;BME280;55625;47.072;22.192;2023-03-14T05:25:12;99047.09;;;6.18;68.91
68634;BME280;55625;47.072;22.192;2023-03-14T05:27:38;99041.16;;;6.29;67.55
68634;BME280;55625;47.072;22.192;2023-03-14T05:30:06;99045.81;;;6.35;66.59
68634;BME280;55625;47.072;22.192;2023-03-14T05:32:32;99026.53;;;6.50;65.56
68634;BME280;55625;47.072;22.192;2023-03-14T05:34:59;99022.19;;;6.62;63.46
68634;BME280;55625;47.072;22.192;2023-03-14T05:37:26;99028.59;;;6.78;63.10
68634;BME280;55625;47.072;22.192;2023-03-14T05:39:52;99021.94;;;6.85;62.64
68634;BME280;55625;47.072;22.192;2023-03-14T05:42:18;99017.63;;;7.09;60.47
68634;BME280;55625;47.072;22.192;2023-03-14T05:44:44;99011.69;;;7.33;59.28
68634;BME280;55625;47.072;22.192;2023-03-14T05:47:10;99006.97;;;7.55;59.47
68634;BME280;55625;47.072;22.192;2023-03-14T05:49:36;98999.28;;;7.81;61.52
68634;BME280;55625;47.072;22.192;2023-03-14T05:52:02;99000.63;;;8.02;57.89
68634;BME280;55625;47.072;22.192;2023-03-14T05:54:28;99000.94;;;8.29;56.84
68634;BME280;55625;47.072;22.192;2023-03-14T05:56:54;99000.47;;;8.44;56.89
68634;BME280;55625;47.072;22.192;2023-03-14T05:59:19;98997.03;;;8.61;56.90
68634;BME280;55625;47.072;22.192;2023-03-14T06:01:45;98996.03;;;8.77;56.86
68634;BME280;55625;47.072;22.192;2023-03-14T06:04:11;98992.69;;;8.91;56.90
68634;BME280;55625;47.072;22.192;2023-03-14T06:06:37;98998.88;;;8.99;57.12
68634;BME280;55625;47.072;22.192;2023-03-14T06:09:03;99010.06;;;9.02;56.14
68634;BME280;55625;47.072;22.192;2023-03-14T06:11:29;98997.50;;;9.03;55.90
68634;BME280;55625;47.072;22.192;2023-03-14T06:13:55;98995.91;;;9.02;57.35
68634;BME280;55625;47.072;22.192;2023-03-14T06:16:21;98994.34;;;9.01;57.10
68634;BME280;55625;47.072;22.192;2023-03-14T06:18:47;98992.16;;;9.06;55.04
68634;BME280;55625;47.072;22.192;2023-03-14T06:21:15;98989.06;;;9.13;56.36
68634;BME280;55625;47.072;22.192;2023-03-14T06:23:41;98990.31;;;9.12;56.64
68634;BME280;55625;47.072;22.192;2023-03-14T06:26:07;98991.50;;;9.23;53.87
68634;BME280;55625;47.072;22.192;2023-03-14T06:28:32;98996.88;;;9.30;55.52
68634;BME280;55625;47.072;22.192;2023-03-14T06:30:59;98993.91;;;9.34;55.27
68634;BME280;55625;47.072;22.192;2023-03-14T06:33:25;98992.53;;;9.39;56.05
68634;BME280;55625;47.072;22.192;2023-03-14T06:35:51;98987.97;;;9.41;54.22
68634;BME280;55625;47.072;22.192;2023-03-14T06:38:17;98988.94;;;9.47;56.32
68634;BME280;55625;47.072;22.192;2023-03-14T06:40:43;98989.94;;;9.53;53.49
68634;BME280;55625;47.072;22.192;2023-03-14T06:43:09;98992.19;;;9.68;54.41
68634;BME280;55625;47.072;22.192;2023-03-14T06:45:35;98986.75;;;9.82;53.65
68634;BME280;55625;47.072;22.192;2023-03-14T06:48:01;98986.97;;;9.97;55.04
68634;BME280;55625;47.072;22.192;2023-03-14T06:50:27;98996.72;;;10.05;56.17
68634;BME280;55625;47.072;22.192;2023-03-14T06:52:53;98996.59;;;10.09;55.31
68634;BME280;55625;47.072;22.192;2023-03-14T06:55:18;99001.84;;;10.19;55.09
68634;BME280;55625;47.072;22.192;2023-03-14T06:57:44;99003.63;;;10.35;53.96
68634;BME280;55625;47.072;22.192;2023-03-14T07:00:12;99006.00;;;10.46;53.40
68634;BME280;55625;47.072;22.192;2023-03-14T07:02:39;99008.69;;;10.58;53.89
68634;BME280;55625;47.072;22.192;2023-03-14T07:05:06;99005.84;;;10.68;53.78
68634;BME280;55625;47.072;22.192;2023-03-14T07:07:32;99010.31;;;10.78;52.56
68634;BME280;55625;47.072;22.192;2023-03-14T07:09:58;99000.69;;;10.84;52.64
68634;BME280;55625;47.072;22.192;2023-03-14T07:12:23;99009.97;;;10.94;51.70
68634;BME280;55625;47.072;22.192;2023-03-14T07:14:49;99004.13;;;11.07;50.24
68634;BME280;55625;47.072;22.192;2023-03-14T07:17:15;99001.91;;;11.20;49.31
68634;BME280;55625;47.072;22.192;2023-03-14T07:19:41;99004.59;;;11.33;48.15
68634;BME280;55625;47.072;22.192;2023-03-14T07:22:07;99007.66;;;11.53;46.03
68634;BME280;55625;47.072;22.192;2023-03-14T07:24:33;99006.53;;;11.69;45.81
68634;BME280;55625;47.072;22.192;2023-03-14T07:26:58;99006.66;;;11.84;45.04
68634;BME280;55625;47.072;22.192;2023-03-14T07:29:24;98991.75;;;11.98;46.11
68634;BME280;55625;47.072;22.192;2023-03-14T07:31:50;98991.47;;;12.20;44.85
68634;BME280;55625;47.072;22.192;2023-03-14T07:34:16;98993.31;;;12.32;46.41
68634;BME280;55625;47.072;22.192;2023-03-14T07:36:42;98982.16;;;12.43;43.46
68634;BME280;55625;47.072;22.192;2023-03-14T07:39:08;98986.50;;;12.53;43.44
68634;BME280;55625;47.072;22.192;2023-03-14T07:41:34;98982.03;;;12.61;43.30
68634;BME280;55625;47.072;22.192;2023-03-14T07:44:00;98980.56;;;12.66;42.61
68634;BME280;55625;47.072;22.192;2023-03-14T07:46:26;98986.28;;;12.81;42.38
68634;BME280;55625;47.072;22.192;2023-03-14T07:48:52;98992.59;;;12.85;41.40
68634;BME280;55625;47.072;22.192;2023-03-14T07:51:18;98980.91;;;12.83;43.10
68634;BME280;55625;47.072;22.192;2023-03-14T07:53:44;98974.66;;;12.93;40.99
68634;BME280;55625;47.072;22.192;2023-03-14T07:56:10;98984.19;;;12.90;41.91
68634;BME280;55625;47.072;22.192;2023-03-14T07:58:35;98977.91;;;13.01;41.58
68634;BME280;55625;47.072;22.192;2023-03-14T08:01:01;98975.66;;;13.05;40.85
68634;BME280;55625;47.072;22.192;2023-03-14T08:03:27;98977.41;;;13.02;40.75
68634;BME280;55625;47.072;22.192;2023-03-14T08:05:53;98969.56;;;12.97;42.02
68634;BME280;55625;47.072;22.192;2023-03-14T08:08:19;98969.34;;;13.01;41.70
68634;BME280;55625;47.072;22.192;2023-03-14T08:10:45;98972.13;;;13.10;41.58
68634;BME280;55625;47.072;22.192;2023-03-14T08:13:12;98973.97;;;13.13;41.46
68634;BME280;55625;47.072;22.192;2023-03-14T08:15:38;98963.56;;;13.10;42.55
68634;BME280;55625;47.072;22.192;2023-03-14T08:18:05;98964.16;;;13.14;43.01
68634;BME280;55625;47.072;22.192;2023-03-14T08:20:31;98975.50;;;13.23;42.10
68634;BME280;55625;47.072;22.192;2023-03-14T08:23:01;98975.13;;;13.30;41.81
68634;BME280;55625;47.072;22.192;2023-03-14T08:25:28;98971.09;;;13.37;42.96
68634;BME280;55625;47.072;22.192;2023-03-14T08:27:54;98979.22;;;13.44;42.30
68634;BME280;55625;47.072;22.192;2023-03-14T08:30:21;98970.59;;;13.53;41.82
68634;BME280;55625;47.072;22.192;2023-03-14T08:32:48;98983.38;;;13.58;42.10
68634;BME280;55625;47.072;22.192;2023-03-14T08:35:15;98971.56;;;13.65;40.41
68634;BME280;55625;47.072;22.192;2023-03-14T08:37:41;98962.09;;;13.88;41.60
68634;BME280;55625;47.072;22.192;2023-03-14T08:40:08;98962.00;;;13.83;42.05
68634;BME280;55625;47.072;22.192;2023-03-14T08:42:37;98961.50;;;13.84;39.77
68634;BME280;55625;47.072;22.192;2023-03-14T08:45:04;98958.38;;;13.82;41.52
68634;BME280;55625;47.072;22.192;2023-03-14T08:47:30;98958.38;;;13.82;42.41
68634;BME280;55625;47.072;22.192;2023-03-14T08:49:56;98972.13;;;13.84;43.22
68634;BME280;55625;47.072;22.192;2023-03-14T08:52:22;98963.38;;;13.87;43.59
68634;BME280;55625;47.072;22.192;2023-03-14T08:54:48;98970.16;;;13.90;44.35
68634;BME280;55625;47.072;22.192;2023-03-14T08:57:14;98961.88;;;13.92;43.22
68634;BME280;55625;47.072;22.192;2023-03-14T08:59:40;98955.19;;;13.95;42.73
68634;BME280;55625;47.072;22.192;2023-03-14T09:02:09;98951.13;;;14.02;41.72
68634;BME280;55625;47.072;22.192;2023-03-14T09:04:36;98950.41;;;14.07;41.74
68634;BME280;55625;47.072;22.192;2023-03-14T09:07:02;98943.75;;;14.10;39.88
68634;BME280;55625;47.072;22.192;2023-03-14T09:09:29;98939.19;;;14.18;38.91
68634;BME280;55625;47.072;22.192;2023-03-14T09:11:56;98937.19;;;14.24;39.81
68634;BME280;55625;47.072;22.192;2023-03-14T09:14:22;98932.91;;;14.34;39.64
68634;BME280;55625;47.072;22.192;2023-03-14T09:16:49;98931.53;;;14.44;40.92
68634;BME280;55625;47.072;22.192;2023-03-14T09:19:16;98932.38;;;14.50;41.20
68634;BME280;55625;47.072;22.192;2023-03-14T09:21:42;98925.78;;;14.65;38.83
68634;BME280;55625;47.072;22.192;2023-03-14T09:24:08;98929.50;;;14.71;40.49
68634;BME280;55625;47.072;22.192;2023-03-14T09:26:34;98930.63;;;14.79;40.25
68634;BME280;55625;47.072;22.192;2023-03-14T09:29:00;98924.75;;;14.88;39.16
68634;BME280;55625;47.072;22.192;2023-03-14T09:31:26;98922.75;;;14.94;39.09
68634;BME280;55625;47.072;22.192;2023-03-14T09:33:52;98917.94;;;15.06;39.12
68634;BME280;55625;47.072;22.192;2023-03-14T09:36:18;98913.25;;;15.03;38.54
68634;BME280;55625;47.072;22.192;2023-03-14T09:38:44;98918.69;;;15.01;39.07
68634;BME280;55625;47.072;22.192;2023-03-14T09:41:20;98900.38;;;14.93;39.31
68634;BME280;55625;47.072;22.192;2023-03-14T09:43:49;98903.81;;;14.97;36.84
68634;BME280;55625;47.072;22.192;2023-03-14T09:46:16;98906.59;;;14.91;38.00
68634;BME280;55625;47.072;22.192;2023-03-14T09:48:43;98894.63;;;14.87;39.21
68634;BME280;55625;47.072;22.192;2023-03-14T09:51:18;98903.66;;;14.80;38.72
68634;BME280;55625;47.072;22.192;2023-03-14T09:53:49;98895.47;;;14.93;38.57
68634;BME280;55625;47.072;22.192;2023-03-14T09:56:28;98901.84;;;15.08;37.83
68634;BME280;55625;47.072;22.192;2023-03-14T09:59:00;98897.47;;;15.13;38.25
68634;BME280;55625;47.072;22.192;2023-03-14T10:01:32;98897.34;;;15.28;37.26
68634;BME280;55625;47.072;22.192;2023-03-14T10:04:12;98885.91;;;15.28;35.12
68634;BME280;55625;47.072;22.192;2023-03-14T10:06:40;98890.63;;;15.31;37.47
68634;BME280;55625;47.072;22.192;2023-03-14T10:09:08;98880.97;;;15.28;35.89
68634;BME280;55625;47.072;22.192;2023-03-14T10:11:34;98880.31;;;15.39;34.47
68634;BME280;55625;47.072;22.192;2023-03-14T10:14:12;98872.41;;;15.28;36.09
68634;BME280;55625;47.072;22.192;2023-03-14T10:16:46;98868.31;;;15.35;37.02
68634;BME280;55625;47.072;22.192;2023-03-14T10:19:14;98866.25;;;15.35;35.29
68634;BME280;55625;47.072;22.192;2023-03-14T10:21:43;98855.91;;;15.43;34.60
68634;BME280;55625;47.072;22.192;2023-03-14T10:26:59;98858.34;;;15.25;34.71
68634;BME280;55625;47.072;22.192;2023-03-14T10:29:33;98847.78;;;15.36;35.92
68634;BME280;55625;47.072;22.192;2023-03-14T10:34:36;98827.31;;;15.43;35.38
68634;BME280;55625;47.072;22.192;2023-03-14T10:37:21;98821.66;;;15.54;34.73
68634;BME280;55625;47.072;22.192;2023-03-14T10:39:54;98813.25;;;15.77;33.85
68634;BME280;55625;47.072;22.192;2023-03-14T10:42:30;98807.63;;;15.94;35.30
68634;BME280;55625;47.072;22.192;2023-03-14T10:45:05;98813.38;;;16.05;34.30
68634;BME280;55625;47.072;22.192;2023-03-14T10:47:33;98806.09;;;16.04;35.21
68634;BME280;55625;47.072;22.192;2023-03-14T10:50:30;98798.53;;;16.01;36.24
68634;BME280;55625;47.072;22.192;2023-03-14T10:52:57;98799.06;;;16.05;34.33
68634;BME280;55625;47.072;22.192;2023-03-14T10:55:26;98792.31;;;16.08;33.64
68634;BME280;55625;47.072;22.192;2023-03-14T10:57:52;98777.78;;;16.17;36.56
68634;BME280;55625;47.072;22.192;2023-03-14T11:00:23;98766.06;;;16.21;35.22
68634;BME280;55625;47.072;22.192;2023-03-14T11:03:11;98756.28;;;16.55;33.95
68634;BME280;55625;47.072;22.192;2023-03-14T11:05:53;98750.84;;;16.96;32.45
68634;BME280;55625;47.072;22.192;2023-03-14T11:11:25;98732.97;;;17.87;31.16
68634;BME280;55625;47.072;22.192;2023-03-14T11:17:02;98704.81;;;18.27;30.36
68634;BME280;55625;47.072;22.192;2023-03-14T11:20:02;98719.22;;;18.21;30.15
68634;BME280;55625;47.072;22.192;2023-03-14T11:28:37;98690.69;;;18.29;30.51
68634;BME280;55625;47.072;22.192;2023-03-14T11:31:20;98683.16;;;18.26;31.31
68634;BME280;55625;47.072;22.192;2023-03-14T11:34:29;98687.78;;;18.35;31.20
68634;BME280;55625;47.072;22.192;2023-03-14T11:37:04;98681.59;;;18.25;29.54
68634;BME280;55625;47.072;22.192;2023-03-14T11:39:41;98682.50;;;18.03;32.74
68634;BME280;55625;47.072;22.192;2023-03-14T11:42:15;98677.25;;;18.13;31.12
68634;BME280;55625;47.072;22.192;2023-03-14T11:44:46;98671.06;;;18.33;29.81
68634;BME280;55625;47.072;22.192;2023-03-14T11:47:26;98677.75;;;18.52;29.58
68634;BME280;55625;47.072;22.192;2023-03-14T11:52:55;98664.25;;;18.77;28.71
68634;BME280;55625;47.072;22.192;2023-03-14T11:55:37;98674.31;;;18.89;29.00
68634;BME280;55625;47.072;22.192;2023-03-14T11:58:50;98661.72;;;18.92;30.12
68634;BME280;55625;47.072;22.192;2023-03-14T12:01:17;98665.16;;;18.91;29.65
68634;BME280;55625;47.072;22.192;2023-03-14T12:03:58;98648.69;;;18.91;29.40
68634;BME280;55625;47.072;22.192;2023-03-14T12:06:41;98641.91;;;18.89;29.09
68634;BME280;55625;47.072;22.192;2023-03-14T12:09:10;98639.13;;;19.08;29.89
68634;BME280;55625;47.072;22.192;2023-03-14T12:14:45;98622.44;;;19.25;28.56
68634;BME280;55625;47.072;22.192;2023-03-14T12:17:26;98616.91;;;19.27;28.14
68634;BME280;55625;47.072;22.192;2023-03-14T12:20:20;98603.03;;;19.31;28.44
68634;BME280;55625;47.072;22.192;2023-03-14T12:22:54;98601.56;;;19.43;29.22
68634;BME280;55625;47.072;22.192;2023-03-14T12:25:26;98597.75;;;19.35;27.41
68634;BME280;55625;47.072;22.192;2023-03-14T12:30:38;98590.31;;;19.21;28.96
68634;BME280;55625;47.072;22.192;2023-03-14T12:41:17;98578.81;;;19.21;29.95
68634;BME280;55625;47.072;22.192;2023-03-14T12:43:46;98571.53;;;19.39;29.50
68634;BME280;55625;47.072;22.192;2023-03-14T12:51:42;98560.22;;;19.65;29.05
68634;BME280;55625;47.072;22.192;2023-03-14T12:57:28;98548.72;;;19.65;28.65
68634;BME280;55625;47.072;22.192;2023-03-14T13:00:00;98543.75;;;19.66;27.96
68634;BME280;55625;47.072;22.192;2023-03-14T13:02:39;98551.25;;;19.50;29.01
68634;BME280;55625;47.072;22.192;2023-03-14T13:05:17;98556.94;;;19.56;28.88
68634;BME280;55625;47.072;22.192;2023-03-14T13:10:19;98539.66;;;19.37;28.89
68634;BME280;55625;47.072;22.192;2023-03-14T13:13:19;98541.22;;;19.38;28.57
68634;BME280;55625;47.072;22.192;2023-03-14T13:15:48;98540.88;;;19.04;29.04
68634;BME280;55625;47.072;22.192;2023-03-14T13:19:20;98535.75;;;18.67;28.42
68634;BME280;55625;47.072;22.192;2023-03-14T13:21:27;98525.16;;;18.56;29.47
68634;BME280;55625;47.072;22.192;2023-03-14T13:24:01;98520.03;;;18.19;30.17
68634;BME280;55625;47.072;22.192;2023-03-14T13:26:41;98519.81;;;17.81;31.49
68634;BME280;55625;47.072;22.192;2023-03-14T13:31:52;98510.31;;;17.56;32.75
68634;BME280;55625;47.072;22.192;2023-03-14T13:34:18;98515.63;;;17.82;32.35
68634;BME280;55625;47.072;22.192;2023-03-14T13:36:44;98504.63;;;17.86;33.21
68634;BME280;55625;47.072;22.192;2023-03-14T13:39:14;98504.34;;;17.90;32.82
68634;BME280;55625;47.072;22.192;2023-03-14T13:41:42;98500.66;;;17.95;32.79
68634;BME280;55625;47.072;22.192;2023-03-14T13:44:38;98497.94;;;18.08;34.02
68634;BME280;55625;47.072;22.192;2023-03-14T13:47:17;98491.13;;;18.36;32.98
68634;BME280;55625;47.072;22.192;2023-03-14T13:49:44;98497.00;;;18.49;32.80
68634;BME280;55625;47.072;22.192;2023-03-14T13:52:31;98490.22;;;18.76;31.82
68634;BME280;55625;47.072;22.192;2023-03-14T13:55:00;98485.81;;;18.94;32.25
68634;BME280;55625;47.072;22.192;2023-03-14T13:57:26;98480.13;;;18.88;32.37
68634;BME280;55625;47.072;22.192;2023-03-14T14:00:02;98474.22;;;18.81;32.39
68634;BME280;55625;47.072;22.192;2023-03-14T14:02:33;98464.97;;;18.88;31.61
68634;BME280;55625;47.072;22.192;2023-03-14T14:05:02;98471.88;;;18.79;32.34